createdAt,value
2023-01-18T00:01:19.404Z,3.10
2023-01-18T00:03:47.133Z,3.00
2023-01-18T00:06:14.867Z,3.10
2023-01-18T00:08:42.438Z,3.07
2023-01-18T00:11:12.733Z,3.10
2023-01-18T00:13:40.257Z,3.13
2023-01-18T00:16:27.765Z,3.13
2023-01-18T00:18:57.994Z,3.10
2023-01-18T00:21:27.558Z,3.10
2023-01-18T00:23:57.757Z,3.10
2023-01-18T00:26:25.315Z,3.17
2023-01-18T00:28:52.342Z,3.10
2023-01-18T00:31:21.584Z,3.10
2023-01-18T00:33:50.558Z,3.17
2023-01-18T00:36:18.970Z,3.10
2023-01-18T00:38:53.772Z,3.13
2023-01-18T00:41:22.468Z,3.13
2023-01-18T00:43:51.463Z,3.10
2023-01-18T00:46:27.167Z,3.07
2023-01-18T00:48:57.163Z,3.10
2023-01-18T00:51:28.743Z,3.17
2023-01-18T00:53:56.336Z,3.10
2023-01-18T00:56:23.622Z,3.10
2023-01-18T00:58:50.962Z,3.10
2023-01-18T01:01:18.757Z,3.10
2023-01-18T01:04:04.677Z,3.10
2023-01-18T01:06:44.612Z,3.10
2023-01-18T01:09:29.217Z,3.10
2023-01-18T01:12:17.575Z,3.10
2023-01-18T01:15:06.694Z,3.10
2023-01-18T01:17:55.998Z,3.10
2023-01-18T01:20:43.921Z,3.10
2023-01-18T01:23:40.803Z,3.17
2023-01-18T01:26:11.192Z,3.10
2023-01-18T01:28:51.647Z,3.07
2023-01-18T01:31:22.019Z,3.10
2023-01-18T01:33:49.344Z,3.00
2023-01-18T01:36:25.804Z,3.07
2023-01-18T01:38:54.011Z,3.00
2023-01-18T01:41:30.839Z,3.07
2023-01-18T01:44:04.636Z,3.10
2023-01-18T01:46:42.276Z,3.13
2023-01-18T01:49:32.896Z,3.10
2023-01-18T01:52:10.979Z,3.20
2023-01-18T01:54:47.547Z,3.17
2023-01-18T01:57:32.427Z,3.17
2023-01-18T02:00:19.682Z,3.20
2023-01-18T02:03:17.832Z,3.20
2023-01-18T02:05:53.499Z,3.17
2023-01-18T02:08:23.708Z,3.20
2023-01-18T02:10:55.424Z,3.10
2023-01-18T02:13:25.773Z,3.20
2023-01-18T02:16:36.304Z,3.13
2023-01-18T02:19:48.190Z,3.10
2023-01-18T02:22:47.564Z,3.10
2023-01-18T02:25:59.073Z,3.10
2023-01-18T02:28:37.604Z,3.20
2023-01-18T02:31:27.186Z,3.10
2023-01-18T02:34:33.339Z,3.17
2023-01-18T02:37:10.680Z,3.10
2023-01-18T02:40:46.497Z,3.10
2023-01-18T02:43:37.479Z,3.10
2023-01-18T02:46:33.454Z,3.17
2023-01-18T02:49:23.700Z,3.10
2023-01-18T02:52:20.623Z,3.10
2023-01-18T02:54:47.698Z,3.13
2023-01-18T02:57:18.177Z,3.10
2023-01-18T02:59:55.402Z,3.10
2023-01-18T03:02:26.265Z,3.10
2023-01-18T03:04:55.413Z,3.07
2023-01-18T03:07:40.190Z,3.07
2023-01-18T03:10:12.309Z,3.10
2023-01-18T03:13:00.781Z,3.10
2023-01-18T03:15:53.790Z,3.10
2023-01-18T03:19:00.533Z,3.10
2023-01-18T03:21:50.777Z,3.10
2023-01-18T03:24:20.318Z,3.10
2023-01-18T03:26:55.101Z,3.07
2023-01-18T03:29:42.993Z,3.10
2023-01-18T03:32:36.802Z,3.20
2023-01-18T03:35:15.305Z,3.20
2023-01-18T03:37:46.889Z,3.10
2023-01-18T03:40:21.511Z,3.07
2023-01-18T03:43:16.565Z,3.10
2023-01-18T03:45:48.722Z,3.10
2023-01-18T03:48:16.633Z,3.13
2023-01-18T03:51:02.620Z,3.10
2023-01-18T03:54:12.365Z,3.10
2023-01-18T03:56:57.736Z,3.10
2023-01-18T03:59:30.207Z,3.00
2023-01-18T04:01:57.262Z,3.10
2023-01-18T04:04:24.294Z,3.10
2023-01-18T04:06:51.674Z,3.03
2023-01-18T04:09:18.672Z,3.10
2023-01-18T04:11:45.666Z,3.10
2023-01-18T04:14:12.626Z,3.10
2023-01-18T04:16:39.646Z,3.00
2023-01-18T04:19:08.561Z,3.10
2023-01-18T04:21:35.902Z,3.03
2023-01-18T04:24:02.866Z,3.00
2023-01-18T04:26:29.992Z,2.97
2023-01-18T04:28:57.014Z,3.00
2023-01-18T04:31:24.595Z,3.07
2023-01-18T04:33:51.854Z,3.10
2023-01-18T04:36:20.358Z,3.07
2023-01-18T04:38:47.479Z,3.10
2023-01-18T04:41:14.483Z,3.00
2023-01-18T04:43:41.480Z,3.00
2023-01-18T04:46:08.495Z,3.10
2023-01-18T04:48:35.894Z,3.00
2023-01-18T04:51:02.879Z,3.00
2023-01-18T04:53:30.303Z,3.03
2023-01-18T04:55:58.701Z,3.00
2023-01-18T04:58:25.743Z,3.00
2023-01-18T05:00:52.777Z,3.03
2023-01-18T05:03:19.799Z,3.00
2023-01-18T05:05:47.235Z,3.00
2023-01-18T05:08:14.351Z,3.07
2023-01-18T05:10:41.788Z,3.00
2023-01-18T05:13:09.337Z,3.00
2023-01-18T05:15:36.371Z,3.00
2023-01-18T05:18:03.627Z,3.00
2023-01-18T05:20:30.735Z,3.07
2023-01-18T05:22:58.257Z,3.03
2023-01-18T05:25:25.819Z,3.00
2023-01-18T05:27:52.813Z,3.20
2023-01-18T05:30:19.841Z,3.00
2023-01-18T05:32:47.254Z,3.00
2023-01-18T05:35:14.417Z,3.00
2023-01-18T05:37:41.840Z,3.00
2023-01-18T05:40:10.302Z,3.07
2023-01-18T05:42:37.717Z,3.10
2023-01-18T05:45:05.558Z,3.00
2023-01-18T05:47:33.016Z,3.07
2023-01-18T05:50:00.434Z,3.03
2023-01-18T05:52:27.460Z,3.00
2023-01-18T05:54:54.845Z,3.10
2023-01-18T05:57:22.341Z,3.07
2023-01-18T05:59:49.290Z,3.00
2023-01-18T06:02:16.616Z,3.00
2023-01-18T06:04:44.261Z,3.03
2023-01-18T06:07:11.781Z,3.00
2023-01-18T06:09:38.830Z,3.00
2023-01-18T06:12:06.395Z,3.00
2023-01-18T06:14:33.397Z,3.00
2023-01-18T06:17:02.025Z,3.00
2023-01-18T06:19:29.055Z,3.00
2023-01-18T06:21:56.089Z,3.00
2023-01-18T06:24:23.045Z,3.00
2023-01-18T06:26:50.051Z,3.00
2023-01-18T06:29:17.031Z,3.00
2023-01-18T06:31:44.453Z,2.97
2023-01-18T06:34:11.578Z,3.00
2023-01-18T06:36:39.888Z,3.00
2023-01-18T06:39:07.440Z,3.00
2023-01-18T06:41:34.849Z,3.00
2023-01-18T06:44:01.965Z,2.97
2023-01-18T06:46:31.272Z,3.00
2023-01-18T06:48:58.875Z,2.97
2023-01-18T06:51:26.467Z,3.00
2023-01-18T06:53:53.984Z,3.00
2023-01-18T06:56:21.447Z,3.00
2023-01-18T06:58:48.438Z,2.93
2023-01-18T07:01:15.921Z,2.97
2023-01-18T07:03:43.037Z,3.00
2023-01-18T07:06:10.032Z,2.97
2023-01-18T07:08:37.069Z,3.00
2023-01-18T07:11:08.805Z,2.97
2023-01-18T07:13:40.035Z,2.90
2023-01-18T07:16:17.333Z,2.97
2023-01-18T07:18:50.755Z,3.00
2023-01-18T07:21:19.439Z,2.97
2023-01-18T07:23:47.512Z,3.00
2023-01-18T07:26:17.992Z,3.00
2023-01-18T07:28:47.429Z,3.00
2023-01-18T07:31:16.858Z,2.90
2023-01-18T07:33:44.857Z,2.97
2023-01-18T07:36:13.913Z,2.93
2023-01-18T07:38:41.452Z,3.00
2023-01-18T07:41:16.284Z,2.90
2023-01-18T07:43:45.879Z,2.90
2023-01-18T07:46:21.039Z,2.90
2023-01-18T07:48:49.359Z,2.90
2023-01-18T07:51:17.110Z,2.93
2023-01-18T07:53:44.490Z,3.00
2023-01-18T07:56:18.547Z,3.00
2023-01-18T07:58:46.395Z,2.93
2023-01-18T08:01:21.235Z,2.90
2023-01-18T08:03:50.080Z,2.93
2023-01-18T08:06:24.870Z,2.97
2023-01-18T08:08:55.420Z,3.00
2023-01-18T08:11:23.084Z,2.90
2023-01-18T08:13:52.418Z,2.90
2023-01-18T08:16:20.015Z,2.90
2023-01-18T08:18:50.445Z,3.00
2023-01-18T08:21:18.106Z,3.00
2023-01-18T08:23:45.093Z,2.90
2023-01-18T08:26:13.621Z,3.00
2023-01-18T08:28:41.468Z,3.00
2023-01-18T08:31:19.566Z,2.93
2023-01-18T08:33:48.787Z,2.90
2023-01-18T08:36:24.077Z,3.00
2023-01-18T08:38:55.176Z,2.93
2023-01-18T08:41:30.770Z,2.97
2023-01-18T08:43:59.801Z,2.90
2023-01-18T08:46:27.126Z,2.90
2023-01-18T08:48:58.945Z,2.93
2023-01-18T08:51:26.401Z,2.90
2023-01-18T08:53:57.042Z,2.90
2023-01-18T08:56:24.756Z,2.90
2023-01-18T08:58:52.129Z,3.00
2023-01-18T09:04:01.069Z,3.00
2023-01-18T09:06:32.134Z,2.90
2023-01-18T09:08:59.857Z,2.97
2023-01-18T09:11:27.027Z,3.00
2023-01-18T09:14:00.991Z,2.90
2023-01-18T09:16:30.380Z,2.93
2023-01-18T09:18:58.546Z,2.97
2023-01-18T09:21:27.849Z,3.00
2023-01-18T09:23:55.288Z,2.90
2023-01-18T09:26:22.327Z,2.90
2023-01-18T09:28:52.726Z,2.97
2023-01-18T09:31:27.076Z,2.87
2023-01-18T09:34:01.011Z,2.90
2023-01-18T09:36:41.042Z,2.90
2023-01-18T09:39:08.151Z,3.00
2023-01-18T09:41:39.834Z,2.83
2023-01-18T09:44:24.631Z,2.87
2023-01-18T09:47:28.150Z,2.80
2023-01-18T09:50:03.616Z,2.90
2023-01-18T09:52:46.263Z,2.93
2023-01-18T09:55:49.780Z,2.90
2023-01-18T09:58:57.195Z,2.90
2023-01-18T10:01:34.186Z,2.90
2023-01-18T10:04:21.978Z,2.93
2023-01-18T10:07:00.768Z,2.90
2023-01-18T10:09:39.011Z,3.00
2023-01-18T10:12:44.507Z,3.00
2023-01-18T10:15:29.347Z,2.97
2023-01-18T10:18:00.396Z,2.93
2023-01-18T10:20:43.331Z,2.90
2023-01-18T10:23:41.354Z,2.90
2023-01-18T10:26:30.559Z,3.00
2023-01-18T10:29:26.429Z,2.97
2023-01-18T10:32:05.855Z,2.97
2023-01-18T10:34:38.893Z,2.97
2023-01-18T10:37:30.467Z,2.90
2023-01-18T10:40:09.170Z,2.93
2023-01-18T10:42:59.578Z,2.93
2023-01-18T10:45:35.184Z,3.00
2023-01-18T10:48:33.995Z,3.00
2023-01-18T10:51:08.010Z,3.00
2023-01-18T10:53:39.824Z,3.00
2023-01-18T10:56:19.780Z,3.00
2023-01-18T10:59:00.363Z,3.00
2023-01-18T11:01:55.785Z,3.00
2023-01-18T11:04:30.523Z,3.00
2023-01-18T11:07:04.752Z,3.00
2023-01-18T11:09:34.820Z,3.00
2023-01-18T11:12:34.520Z,3.00
2023-01-18T11:15:13.609Z,3.00
2023-01-18T11:18:03.211Z,3.00
2023-01-18T11:20:45.985Z,3.00
2023-01-18T11:23:21.099Z,3.00
2023-01-18T11:26:06.289Z,2.97
2023-01-18T11:29:01.924Z,2.97
2023-01-18T11:31:46.311Z,3.00
2023-01-18T11:34:51.624Z,3.00
2023-01-18T11:37:38.191Z,3.00
2023-01-18T11:40:26.702Z,3.00
2023-01-18T11:43:22.435Z,3.03
2023-01-18T11:46:42.770Z,3.00
2023-01-18T11:49:32.913Z,3.00
2023-01-18T11:52:46.656Z,3.03
2023-01-18T11:55:40.513Z,3.00
2023-01-18T11:58:40.727Z,3.00
2023-01-18T12:01:43.402Z,3.03
2023-01-18T12:04:54.404Z,3.00
2023-01-18T12:08:06.657Z,3.00
2023-01-18T12:11:21.795Z,3.00
2023-01-18T12:14:01.543Z,3.03
2023-01-18T12:16:43.414Z,3.03
2023-01-18T12:19:59.380Z,2.97
2023-01-18T12:22:50.461Z,3.00
2023-01-18T12:26:10.736Z,3.00
2023-01-18T12:29:03.866Z,2.97
2023-01-18T12:32:04.218Z,3.00
2023-01-18T12:35:23.569Z,3.00
2023-01-18T12:38:17.380Z,3.03
2023-01-18T12:41:38.421Z,3.00
2023-01-18T12:44:48.586Z,3.00
2023-01-18T12:47:39.205Z,3.00
2023-01-18T12:50:23.250Z,3.00
2023-01-18T12:52:58.932Z,3.00
2023-01-18T12:55:32.081Z,3.00
2023-01-18T12:58:02.779Z,2.97
2023-01-18T13:00:49.660Z,3.00
2023-01-18T13:03:26.227Z,2.97
2023-01-18T13:06:01.748Z,3.00
2023-01-18T13:09:07.018Z,3.00
2023-01-18T13:11:41.475Z,3.00
2023-01-18T13:14:27.616Z,3.00
2023-01-18T13:17:15.851Z,3.00
2023-01-18T13:20:00.083Z,2.90
2023-01-18T13:22:59.481Z,2.97
2023-01-18T13:26:17.809Z,3.00
2023-01-18T13:28:46.186Z,3.00
2023-01-18T13:31:13.967Z,3.00
2023-01-18T13:33:45.461Z,3.00
2023-01-18T13:36:21.505Z,3.00
2023-01-18T13:39:00.949Z,3.00
2023-01-18T13:41:30.560Z,3.00
2023-01-18T13:44:01.161Z,3.00
2023-01-18T13:46:30.372Z,2.97
2023-01-18T13:49:01.577Z,3.03
2023-01-18T13:51:40.795Z,3.00
2023-01-18T13:54:10.079Z,3.00
2023-01-18T13:56:39.432Z,3.00
2023-01-18T13:59:12.481Z,3.00
2023-01-18T14:01:44.786Z,2.93
2023-01-18T14:04:31.575Z,3.00
2023-01-18T14:07:04.136Z,3.00
2023-01-18T14:09:45.506Z,2.93
2023-01-18T14:12:14.569Z,3.00
2023-01-18T14:15:00.823Z,2.97
2023-01-18T14:17:31.472Z,3.00
2023-01-18T14:20:34.130Z,2.97
2023-01-18T14:23:34.568Z,3.00
2023-01-18T14:26:13.477Z,3.00
2023-01-18T14:28:51.358Z,2.93
2023-01-18T14:31:53.080Z,2.93
2023-01-18T14:34:30.119Z,2.90
2023-01-18T14:36:58.123Z,2.90
2023-01-18T14:39:25.837Z,3.00
2023-01-18T14:42:04.509Z,2.97
2023-01-18T14:44:57.751Z,2.97
2023-01-18T14:47:32.498Z,2.93
2023-01-18T14:50:04.472Z,3.00
2023-01-18T14:52:34.555Z,3.00
2023-01-18T14:55:01.881Z,3.00
2023-01-18T14:57:29.419Z,3.00
2023-01-18T15:00:16.219Z,2.97
2023-01-18T15:02:43.717Z,3.00
2023-01-18T15:05:16.642Z,2.97
2023-01-18T15:07:55.812Z,2.90
2023-01-18T15:10:24.293Z,3.00
2023-01-18T15:12:57.873Z,2.90
2023-01-18T15:15:41.675Z,2.90
2023-01-18T15:18:21.275Z,3.00
2023-01-18T15:20:57.306Z,2.97
2023-01-18T15:23:26.772Z,3.00
2023-01-18T15:25:56.568Z,3.00
2023-01-18T15:28:33.777Z,2.93
2023-01-18T15:31:14.203Z,3.00
2023-01-18T15:33:43.084Z,3.00
2023-01-18T15:36:10.898Z,2.97
2023-01-18T15:38:39.746Z,2.97
2023-01-18T15:41:12.416Z,3.00
2023-01-18T15:43:45.207Z,2.97
2023-01-18T15:46:17.871Z,3.00
2023-01-18T15:48:55.447Z,2.97
2023-01-18T15:51:43.052Z,3.00
2023-01-18T15:54:24.438Z,3.00
2023-01-18T15:56:52.204Z,3.00
2023-01-18T15:59:24.989Z,3.00
2023-01-18T16:02:21.678Z,3.00
2023-01-18T16:04:49.171Z,2.97
2023-01-18T16:07:39.064Z,3.00
2023-01-18T16:10:17.688Z,3.00
2023-01-18T16:12:45.548Z,2.97
2023-01-18T16:15:28.345Z,3.03
2023-01-18T16:18:06.307Z,2.93
2023-01-18T16:20:35.696Z,3.00
2023-01-18T16:23:18.843Z,3.00
2023-01-18T16:26:01.598Z,3.00
2023-01-18T16:28:28.931Z,2.97
2023-01-18T16:30:56.097Z,2.97
2023-01-18T16:33:23.747Z,2.90
2023-01-18T16:35:50.914Z,2.97
2023-01-18T16:38:20.009Z,2.93
2023-01-18T16:40:50.460Z,3.00
2023-01-18T16:43:29.250Z,2.93
2023-01-18T16:45:58.859Z,2.97
2023-01-18T16:48:30.535Z,2.90
2023-01-18T16:51:01.050Z,2.97
2023-01-18T16:53:29.491Z,2.93
2023-01-18T16:55:56.790Z,3.00
2023-01-18T16:58:24.266Z,2.97
2023-01-18T17:01:12.278Z,2.97
2023-01-18T17:03:40.181Z,3.00
2023-01-18T17:06:07.728Z,2.97
2023-01-18T17:08:34.708Z,3.00
2023-01-18T17:11:01.696Z,2.97
2023-01-18T17:13:28.678Z,3.00
2023-01-18T17:15:56.094Z,2.93
2023-01-18T17:18:25.905Z,2.90
2023-01-18T17:20:55.046Z,3.00
2023-01-18T17:23:22.781Z,3.00
2023-01-18T17:25:49.804Z,3.00
2023-01-18T17:28:19.313Z,3.00
2023-01-18T17:30:49.542Z,3.00
2023-01-18T17:33:24.857Z,3.00
2023-01-18T17:35:55.132Z,2.93
2023-01-18T17:38:25.097Z,3.00
2023-01-18T17:40:53.403Z,2.97
2023-01-18T17:43:32.942Z,3.00
2023-01-18T17:46:06.296Z,2.97
2023-01-18T17:48:33.978Z,3.00
2023-01-18T17:51:03.020Z,3.00
2023-01-18T17:53:30.073Z,3.00
2023-01-18T17:55:57.552Z,3.00
2023-01-18T17:58:24.800Z,3.00
2023-01-18T18:00:51.881Z,3.00
2023-01-18T18:03:20.204Z,3.00
2023-01-18T18:05:47.191Z,3.00
2023-01-18T18:08:14.203Z,3.03
2023-01-18T18:10:43.594Z,3.00
2023-01-18T18:13:11.007Z,3.00
2023-01-18T18:15:38.046Z,2.97
2023-01-18T18:18:07.469Z,3.00
2023-01-18T18:20:38.727Z,3.00
2023-01-18T18:23:05.926Z,3.00
2023-01-18T18:25:34.008Z,3.00
2023-01-18T18:28:01.178Z,2.90
2023-01-18T18:30:28.669Z,3.03
2023-01-18T18:32:56.916Z,2.97
2023-01-18T18:35:26.166Z,3.00
2023-01-18T18:37:55.367Z,2.93
2023-01-18T18:40:24.291Z,3.00
2023-01-18T18:43:07.547Z,3.00
2023-01-18T18:45:34.951Z,3.00
2023-01-18T18:48:02.103Z,3.00
2023-01-18T18:50:31.011Z,3.00
2023-01-18T18:52:59.270Z,3.00
2023-01-18T18:55:26.446Z,3.00
2023-01-18T18:57:53.453Z,3.00
2023-01-18T19:00:21.151Z,3.00
2023-01-18T19:02:48.408Z,2.97
2023-01-18T19:05:16.071Z,2.97
2023-01-18T19:07:43.733Z,2.93
2023-01-18T19:10:14.276Z,2.97
2023-01-18T19:12:41.741Z,3.00
2023-01-18T19:15:09.349Z,2.97
2023-01-18T19:17:37.406Z,3.00
2023-01-18T19:20:07.432Z,2.93
2023-01-18T19:22:38.186Z,3.00
2023-01-18T19:25:06.455Z,2.93
2023-01-18T19:27:34.125Z,2.90
2023-01-18T19:30:01.171Z,2.97
2023-01-18T19:32:28.764Z,3.00
2023-01-18T19:34:56.236Z,2.93
2023-01-18T19:37:23.232Z,3.10
2023-01-18T19:39:50.208Z,3.00
2023-01-18T19:42:17.222Z,3.00
2023-01-18T19:44:44.368Z,3.00
2023-01-18T19:47:11.394Z,2.97
2023-01-18T19:49:40.109Z,3.00
2023-01-18T19:52:07.130Z,3.00
2023-01-18T19:54:34.558Z,2.97
2023-01-18T19:57:02.410Z,2.90
2023-01-18T19:59:29.990Z,2.90
2023-01-18T20:01:57.351Z,2.90
2023-01-18T20:04:25.400Z,2.97
2023-01-18T20:06:53.177Z,3.00
2023-01-18T20:09:25.021Z,3.00
2023-01-18T20:11:56.773Z,3.00
2023-01-18T20:14:28.254Z,3.00
2023-01-18T20:17:01.422Z,2.97
2023-01-18T20:19:28.485Z,3.00
2023-01-18T20:21:56.140Z,3.00
2023-01-18T20:24:23.342Z,2.90
2023-01-18T20:26:51.039Z,3.00
2023-01-18T20:29:18.136Z,3.00
2023-01-18T20:31:50.004Z,3.00
2023-01-18T20:34:17.526Z,3.00
2023-01-18T20:36:45.931Z,3.00
2023-01-18T20:39:13.157Z,3.03
2023-01-18T20:41:40.615Z,3.00
2023-01-18T20:44:08.094Z,3.00
2023-01-18T20:46:35.722Z,3.00
2023-01-18T20:49:03.509Z,3.00
2023-01-18T20:51:34.242Z,3.00
2023-01-18T20:54:02.100Z,3.00
2023-01-18T20:56:31.875Z,2.97
2023-01-18T20:58:59.191Z,2.97
2023-01-18T21:01:33.986Z,3.10
2023-01-18T21:04:04.711Z,2.93
2023-01-18T21:06:33.470Z,2.97
2023-01-18T21:09:01.531Z,2.97
2023-01-18T21:11:28.724Z,3.00
2023-01-18T21:14:03.150Z,3.00
2023-01-18T21:16:30.716Z,3.00
2023-01-18T21:18:59.032Z,3.03
2023-01-18T21:21:27.171Z,3.00
2023-01-18T21:23:54.662Z,3.03
2023-01-18T21:26:21.679Z,3.03
2023-01-18T21:28:49.226Z,3.03
2023-01-18T21:31:16.329Z,3.07
2023-01-18T21:33:43.890Z,3.00
2023-01-18T21:36:18.526Z,2.97
2023-01-18T21:38:45.914Z,3.00
2023-01-18T21:41:31.852Z,3.03
2023-01-18T21:44:18.137Z,3.07
2023-01-18T21:46:48.179Z,3.00
2023-01-18T21:49:54.907Z,3.00
2023-01-18T21:52:41.121Z,3.10
2023-01-18T21:55:09.233Z,3.00
2023-01-18T21:57:37.373Z,3.00
2023-01-18T22:00:07.009Z,3.07
2023-01-18T22:02:37.960Z,3.07
2023-01-18T22:05:08.304Z,2.97
2023-01-18T22:07:36.470Z,3.07
2023-01-18T22:10:07.015Z,3.00
2023-01-18T22:12:36.064Z,3.00
2023-01-18T22:15:05.520Z,3.00
2023-01-18T22:17:32.861Z,3.03
2023-01-18T22:20:00.092Z,3.10
2023-01-18T22:22:27.828Z,3.07
2023-01-18T22:24:56.358Z,3.03
2023-01-18T22:27:23.422Z,3.03
2023-01-18T22:29:51.084Z,3.03
2023-01-18T22:32:18.536Z,3.00
2023-01-18T22:34:45.536Z,2.97
2023-01-18T22:37:13.063Z,3.07
2023-01-18T22:39:40.680Z,3.00
2023-01-18T22:42:07.740Z,3.03
2023-01-18T22:44:35.155Z,3.00
2023-01-18T22:47:02.153Z,3.00
2023-01-18T22:49:29.169Z,3.00
2023-01-18T22:51:56.792Z,3.00
2023-01-18T22:54:24.181Z,3.00
2023-01-18T22:56:51.235Z,3.00
2023-01-18T22:59:18.310Z,3.00
2023-01-18T23:01:45.751Z,3.00
2023-01-18T23:04:12.816Z,3.00
2023-01-18T23:06:46.574Z,3.07
2023-01-18T23:09:17.237Z,3.10
2023-01-18T23:11:47.397Z,3.03
2023-01-18T23:14:33.331Z,3.10
2023-01-18T23:17:19.318Z,3.07
2023-01-18T23:19:47.264Z,3.00
2023-01-18T23:22:14.737Z,3.07
2023-01-18T23:24:42.178Z,3.10
2023-01-18T23:27:10.017Z,3.10
2023-01-18T23:29:39.041Z,3.10
2023-01-18T23:32:07.567Z,3.10
2023-01-18T23:34:35.070Z,3.20
2023-01-18T23:37:02.857Z,3.10
2023-01-18T23:39:49.319Z,3.10
2023-01-18T23:42:35.071Z,3.10
2023-01-18T23:45:20.948Z,3.20
2023-01-18T23:48:06.822Z,3.10
2023-01-18T23:50:52.687Z,3.17
2023-01-18T23:53:38.731Z,3.20
2023-01-18T23:56:06.189Z,3.20
2023-01-18T23:58:33.342Z,3.20
